BFT035 BIKF-EDDL
Flight info
| Callsign | BFT035 |
|---|---|
| Flight time | 2h 41m |
| Altitude | 41000 |
| Route | OSKUM3A OSKUM DCT RATSU/N0493F410 DCT DEVBI DCT WIK DCT LESNI DCT RIVOT DCT LONAM DCT PAM P62 PISAP PISAP1A |
| Aircraft | A35K/H-SDE2E3GHIJ1J3J4J5LM1ORWXY/LB1D1 |
Departure
| Time | 2026-05-05 12:23 |
|---|---|
| Airport | Keflavik International Airport (BIKF) |
Arrival
| Time | 2026-05-05 15:05 |
|---|---|
| Airport | Düsseldorf Airport (EDDL) |
| Time | Latitude | Longitude | Altitude | Speed | Heading |
|---|---|---|---|---|---|
| 2026-05-05 11:44 | 63.99407 | -22.62883 | 146 ft | 0 kts | 270° |
| 2026-05-05 12:07 | 63.99407 | -22.62868 | 146 ft | 4 kts | 270° |
| 2026-05-05 12:07 | 63.99408 | -22.62808 | 146 ft | 4 kts | 270° |
| 2026-05-05 12:08 | 63.99408 | -22.62758 | 146 ft | 4 kts | 259° |
| 2026-05-05 12:08 | 63.99417 | -22.62704 | 146 ft | 4 kts | 227° |
| 2026-05-05 12:08 | 63.99438 | -22.62667 | 146 ft | 4 kts | 203° |
| 2026-05-05 12:08 | 63.99440 | -22.62664 | 146 ft | 4 kts | 199° |
| 2026-05-05 12:09 | 63.99423 | -22.62680 | 146 ft | 0 kts | 204° |
| 2026-05-05 12:14 | 63.99419 | -22.62685 | 146 ft | 3 kts | 204° |
| 2026-05-05 12:14 | 63.99380 | -22.62721 | 146 ft | 9 kts | 199° |
| 2026-05-05 12:14 | 63.99338 | -22.62738 | 146 ft | 9 kts | 185° |
| 2026-05-05 12:14 | 63.99262 | -22.62715 | 146 ft | 12 kts | 154° |
| 2026-05-05 12:15 | 63.99198 | -22.62669 | 146 ft | 10 kts | 152° |
| 2026-05-05 12:15 | 63.99174 | -22.62481 | 146 ft | 16 kts | 92° |
| 2026-05-05 12:15 | 63.99172 | -22.62176 | 146 ft | 21 kts | 90° |
| 2026-05-05 12:15 | 63.99173 | -22.61831 | 148 ft | 15 kts | 90° |
| 2026-05-05 12:16 | 63.99173 | -22.61586 | 153 ft | 16 kts | 90° |
| 2026-05-05 12:16 | 63.99174 | -22.61336 | 158 ft | 16 kts | 90° |
| 2026-05-05 12:16 | 63.99173 | -22.61085 | 163 ft | 12 kts | 90° |
| 2026-05-05 12:16 | 63.99164 | -22.60994 | 166 ft | 9 kts | 120° |
| 2026-05-05 12:17 | 63.99084 | -22.60939 | 170 ft | 16 kts | 178° |
| 2026-05-05 12:17 | 63.98946 | -22.60939 | 173 ft | 25 kts | 180° |
| 2026-05-05 12:17 | 63.98784 | -22.60939 | 168 ft | 25 kts | 180° |
| 2026-05-05 12:17 | 63.98625 | -22.60940 | 170 ft | 23 kts | 180° |
| 2026-05-05 12:18 | 63.98470 | -22.60940 | 172 ft | 24 kts | 179° |
| 2026-05-05 12:18 | 63.98292 | -22.60940 | 171 ft | 27 kts | 180° |
| 2026-05-05 12:18 | 63.98126 | -22.60939 | 173 ft | 24 kts | 180° |
| 2026-05-05 12:18 | 63.97951 | -22.60941 | 175 ft | 26 kts | 180° |
| 2026-05-05 12:19 | 63.97775 | -22.60941 | 175 ft | 19 kts | 180° |
| 2026-05-05 12:19 | 63.97628 | -22.60941 | 174 ft | 24 kts | 180° |
| 2026-05-05 12:19 | 63.97463 | -22.60942 | 171 ft | 23 kts | 180° |
| 2026-05-05 12:19 | 63.97309 | -22.60941 | 167 ft | 21 kts | 180° |
| 2026-05-05 12:20 | 63.97141 | -22.60941 | 161 ft | 24 kts | 180° |
| 2026-05-05 12:20 | 63.96984 | -22.60942 | 156 ft | 23 kts | 180° |
| 2026-05-05 12:20 | 63.96822 | -22.60941 | 150 ft | 25 kts | 179° |
| 2026-05-05 12:20 | 63.96658 | -22.60942 | 144 ft | 20 kts | 180° |
| 2026-05-05 12:21 | 63.96517 | -22.60942 | 141 ft | 16 kts | 177° |
| 2026-05-05 12:21 | 63.96464 | -22.60816 | 143 ft | 7 kts | 97° |
| 2026-05-05 12:21 | 63.96464 | -22.60805 | 144 ft | 0 kts | 96° |
| 2026-05-05 12:22 | 63.96462 | -22.60769 | 145 ft | 7 kts | 94° |
| 2026-05-05 12:22 | 63.96464 | -22.60605 | 150 ft | 14 kts | 76° |
| 2026-05-05 12:22 | 63.96498 | -22.60544 | 151 ft | 0 kts | 359° |
| 2026-05-05 12:23 | 63.96587 | -22.60544 | 154 ft | 47 kts | 359° |
| 2026-05-05 12:23 | 63.97182 | -22.60540 | 171 ft | 122 kts | 0° |
| 2026-05-05 12:23 | 63.98219 | -22.60542 | 423 ft | 161 kts | 1° |
| 2026-05-05 12:23 | 63.99333 | -22.60512 | 1293 ft | 159 kts | 2° |
| 2026-05-05 12:24 | 64.00515 | -22.60483 | 1860 ft | 182 kts | 1° |
| 2026-05-05 12:24 | 64.01856 | -22.60510 | 2455 ft | 201 kts | 360° |
| 2026-05-05 12:24 | 64.03277 | -22.60563 | 3280 ft | 207 kts | 0° |
| 2026-05-05 12:24 | 64.04683 | -22.60099 | 4227 ft | 204 kts | 20° |
| 2026-05-05 12:25 | 64.05832 | -22.58228 | 5047 ft | 208 kts | 54° |
| 2026-05-05 12:25 | 64.06395 | -22.55005 | 5528 ft | 235 kts | 83° |
| 2026-05-05 12:25 | 64.06399 | -22.51131 | 6199 ft | 252 kts | 91° |
| 2026-05-05 12:25 | 64.06327 | -22.47097 | 7114 ft | 257 kts | 91° |
| 2026-05-05 12:26 | 64.06240 | -22.42978 | 8017 ft | 262 kts | 95° |
| 2026-05-05 12:26 | 64.05698 | -22.38948 | 8863 ft | 271 kts | 117° |
| 2026-05-05 12:26 | 64.04740 | -22.35209 | 9855 ft | 275 kts | 121° |
| 2026-05-05 12:26 | 64.03754 | -22.31422 | 10705 ft | 284 kts | 119° |
| 2026-05-05 12:27 | 64.02740 | -22.27321 | 11142 ft | 310 kts | 118° |
| 2026-05-05 12:27 | 64.01643 | -22.22847 | 11519 ft | 335 kts | 118° |
| 2026-05-05 12:27 | 64.00462 | -22.18072 | 11997 ft | 355 kts | 120° |
| 2026-05-05 12:27 | 63.99226 | -22.13116 | 12742 ft | 364 kts | 120° |
| 2026-05-05 12:28 | 63.97955 | -22.08050 | 13546 ft | 372 kts | 121° |
| 2026-05-05 12:28 | 63.96660 | -22.02898 | 14370 ft | 378 kts | 121° |
| 2026-05-05 12:28 | 63.95366 | -21.97765 | 15127 ft | 384 kts | 121° |
| 2026-05-05 12:28 | 63.94023 | -21.92442 | 15910 ft | 391 kts | 121° |
| 2026-05-05 12:29 | 63.92659 | -21.87063 | 16701 ft | 396 kts | 121° |
| 2026-05-05 12:29 | 63.91268 | -21.81599 | 17471 ft | 402 kts | 121° |
| 2026-05-05 12:29 | 63.89860 | -21.76057 | 18225 ft | 408 kts | 121° |
| 2026-05-05 12:29 | 63.88429 | -21.70430 | 18922 ft | 414 kts | 121° |
| 2026-05-05 12:30 | 63.86974 | -21.64745 | 19654 ft | 420 kts | 121° |
| 2026-05-05 12:30 | 63.85495 | -21.58984 | 20418 ft | 425 kts | 121° |
| 2026-05-05 12:30 | 63.84003 | -21.53168 | 21118 ft | 430 kts | 121° |
| 2026-05-05 12:30 | 63.82485 | -21.47278 | 21804 ft | 436 kts | 121° |
| 2026-05-05 12:31 | 63.80945 | -21.41324 | 22465 ft | 441 kts | 121° |
| 2026-05-05 12:31 | 63.79381 | -21.35301 | 23130 ft | 446 kts | 121° |
| 2026-05-05 12:31 | 63.77829 | -21.29185 | 23762 ft | 451 kts | 118° |
| 2026-05-05 12:31 | 63.76568 | -21.22646 | 24393 ft | 456 kts | 107° |
| 2026-05-05 12:32 | 63.75847 | -21.15644 | 25003 ft | 460 kts | 96° |
| 2026-05-05 12:32 | 63.75412 | -21.08450 | 25581 ft | 465 kts | 95° |
| 2026-05-05 12:32 | 63.75007 | -21.01188 | 26180 ft | 469 kts | 94° |
| 2026-05-05 12:32 | 63.74604 | -20.93842 | 26762 ft | 473 kts | 94° |
| 2026-05-05 12:33 | 63.74175 | -20.86435 | 27337 ft | 477 kts | 94° |
| 2026-05-05 12:33 | 63.73722 | -20.78974 | 27893 ft | 481 kts | 94° |
| 2026-05-05 12:33 | 63.73252 | -20.71472 | 28417 ft | 485 kts | 95° |
| 2026-05-05 12:33 | 63.72767 | -20.63901 | 28932 ft | 489 kts | 95° |
| 2026-05-05 12:34 | 63.72272 | -20.56291 | 29419 ft | 493 kts | 95° |
| 2026-05-05 12:34 | 63.71727 | -20.48597 | 29854 ft | 498 kts | 98° |
| 2026-05-05 12:34 | 63.70782 | -20.41052 | 30287 ft | 503 kts | 108° |
| 2026-05-05 12:34 | 63.69485 | -20.33723 | 30823 ft | 504 kts | 109° |
| 2026-05-05 12:35 | 63.68131 | -20.26408 | 31239 ft | 507 kts | 109° |
| 2026-05-05 12:35 | 63.66700 | -20.19112 | 31633 ft | 510 kts | 115° |
| 2026-05-05 12:35 | 63.65111 | -20.11946 | 32035 ft | 513 kts | 117° |
| 2026-05-05 12:35 | 63.63468 | -20.04793 | 32400 ft | 517 kts | 117° |
| 2026-05-05 12:36 | 63.61833 | -19.97574 | 32761 ft | 520 kts | 116° |
| 2026-05-05 12:36 | 63.60226 | -19.90278 | 33115 ft | 522 kts | 116° |
| 2026-05-05 12:36 | 63.58647 | -19.82913 | 33537 ft | 523 kts | 115° |
| 2026-05-05 12:36 | 63.57093 | -19.75548 | 34021 ft | 522 kts | 115° |
| 2026-05-05 12:37 | 63.55570 | -19.68277 | 34513 ft | 520 kts | 115° |
| 2026-05-05 12:37 | 63.54015 | -19.60843 | 34910 ft | 520 kts | 115° |
| 2026-05-05 12:37 | 63.52472 | -19.53501 | 35344 ft | 520 kts | 115° |
| 2026-05-05 12:37 | 63.50946 | -19.46274 | 35762 ft | 519 kts | 115° |
| 2026-05-05 12:38 | 63.49400 | -19.38977 | 36141 ft | 519 kts | 115° |
| 2026-05-05 12:38 | 63.47848 | -19.31682 | 36476 ft | 520 kts | 115° |
| 2026-05-05 12:38 | 63.46287 | -19.24374 | 36795 ft | 520 kts | 115° |
| 2026-05-05 12:38 | 63.44724 | -19.17086 | 37169 ft | 518 kts | 115° |
| 2026-05-05 12:39 | 63.43167 | -19.09857 | 37645 ft | 514 kts | 115° |
| 2026-05-05 12:39 | 63.41617 | -19.02679 | 38048 ft | 512 kts | 115° |
| 2026-05-05 12:39 | 63.40067 | -18.95534 | 38359 ft | 512 kts | 115° |
| 2026-05-05 12:39 | 63.38510 | -18.88382 | 38622 ft | 512 kts | 115° |
| 2026-05-05 12:40 | 63.37477 | -18.83647 | 38789 ft | 513 kts | 115° |
| 2026-05-05 12:40 | 63.35914 | -18.76503 | 39031 ft | 513 kts | 115° |
| 2026-05-05 12:40 | 63.34346 | -18.69357 | 39275 ft | 513 kts | 116° |
| 2026-05-05 12:40 | 63.32774 | -18.62222 | 39496 ft | 514 kts | 116° |
| 2026-05-05 12:41 | 63.31197 | -18.55084 | 39702 ft | 514 kts | 116° |
| 2026-05-05 12:41 | 63.29615 | -18.47948 | 39927 ft | 515 kts | 116° |
| 2026-05-05 12:41 | 63.28028 | -18.40811 | 40134 ft | 515 kts | 116° |
| 2026-05-05 12:41 | 63.26440 | -18.33692 | 40332 ft | 515 kts | 116° |
| 2026-05-05 12:42 | 63.24845 | -18.26569 | 40519 ft | 515 kts | 116° |
| 2026-05-05 12:42 | 63.23246 | -18.19455 | 40671 ft | 516 kts | 116° |
| 2026-05-05 12:42 | 63.21640 | -18.12330 | 40854 ft | 516 kts | 116° |
| 2026-05-05 12:42 | 63.20033 | -18.05229 | 41012 ft | 516 kts | 116° |
| 2026-05-05 12:43 | 63.18421 | -17.98121 | 41164 ft | 516 kts | 116° |
| 2026-05-05 12:43 | 63.16803 | -17.91019 | 41204 ft | 518 kts | 116° |
| 2026-05-05 12:43 | 63.13553 | -17.76815 | 41202 ft | 517 kts | 116° |
| 2026-05-05 12:44 | 63.10293 | -17.62667 | 41193 ft | 517 kts | 117° |
| 2026-05-05 12:44 | 63.07019 | -17.48543 | 41179 ft | 517 kts | 117° |
| 2026-05-05 12:45 | 63.03733 | -17.34464 | 41174 ft | 517 kts | 117° |
| 2026-05-05 12:45 | 63.00457 | -17.20514 | 41174 ft | 516 kts | 117° |
| 2026-05-05 12:46 | 62.97144 | -17.06501 | 41176 ft | 516 kts | 117° |
| 2026-05-05 12:46 | 62.93819 | -16.92527 | 41176 ft | 516 kts | 117° |
| 2026-05-05 12:47 | 62.90482 | -16.78590 | 41174 ft | 516 kts | 117° |
| 2026-05-05 12:47 | 62.87134 | -16.64696 | 41174 ft | 515 kts | 117° |
| 2026-05-05 12:48 | 62.83770 | -16.50824 | 41167 ft | 515 kts | 118° |
| 2026-05-05 12:48 | 62.80397 | -16.37008 | 41165 ft | 515 kts | 118° |
| 2026-05-05 12:49 | 62.77012 | -16.23221 | 41166 ft | 515 kts | 118° |
| 2026-05-05 12:49 | 62.73634 | -16.09555 | 41164 ft | 515 kts | 118° |
| 2026-05-05 12:50 | 62.70224 | -15.95844 | 41165 ft | 515 kts | 118° |
| 2026-05-05 12:50 | 62.66797 | -15.82155 | 41165 ft | 515 kts | 118° |
| 2026-05-05 12:51 | 62.63361 | -15.68513 | 41165 ft | 514 kts | 118° |
| 2026-05-05 12:51 | 62.59917 | -15.54899 | 41164 ft | 514 kts | 119° |
| 2026-05-05 12:52 | 62.56454 | -15.41316 | 41165 ft | 514 kts | 119° |
| 2026-05-05 12:52 | 62.52979 | -15.27767 | 41165 ft | 515 kts | 119° |
| 2026-05-05 12:53 | 62.49487 | -15.14236 | 41146 ft | 515 kts | 119° |
| 2026-05-05 12:53 | 62.45984 | -15.00744 | 41146 ft | 515 kts | 119° |
| 2026-05-05 12:54 | 62.40706 | -14.80569 | 41146 ft | 515 kts | 120° |
| 2026-05-05 12:55 | 62.37170 | -14.67151 | 41154 ft | 515 kts | 120° |
| 2026-05-05 12:55 | 62.33619 | -14.53754 | 41156 ft | 515 kts | 120° |
| 2026-05-05 12:56 | 62.30056 | -14.40396 | 41155 ft | 515 kts | 120° |
| 2026-05-05 12:56 | 62.26480 | -14.27071 | 41143 ft | 515 kts | 120° |
| 2026-05-05 12:57 | 62.22895 | -14.13783 | 41117 ft | 515 kts | 120° |
| 2026-05-05 12:57 | 62.19291 | -14.00516 | 41137 ft | 515 kts | 120° |
| 2026-05-05 12:58 | 62.15674 | -13.87276 | 41138 ft | 516 kts | 120° |
| 2026-05-05 12:58 | 62.12042 | -13.74071 | 41137 ft | 514 kts | 121° |
| 2026-05-05 12:59 | 62.08404 | -13.60897 | 41138 ft | 515 kts | 121° |
| 2026-05-05 12:59 | 62.04761 | -13.47789 | 41137 ft | 515 kts | 121° |
| 2026-05-05 13:00 | 61.99257 | -13.28134 | 41137 ft | 515 kts | 121° |
| 2026-05-05 13:01 | 61.91906 | -13.02142 | 41138 ft | 515 kts | 121° |
| 2026-05-05 13:01 | 61.88198 | -12.89144 | 41138 ft | 515 kts | 121° |
| 2026-05-05 13:02 | 61.84481 | -12.76188 | 41138 ft | 515 kts | 122° |
| 2026-05-05 13:02 | 61.80747 | -12.63249 | 41136 ft | 515 kts | 122° |
| 2026-05-05 13:03 | 61.77003 | -12.50345 | 41137 ft | 515 kts | 122° |
| 2026-05-05 13:03 | 61.73246 | -12.37472 | 41137 ft | 515 kts | 122° |
| 2026-05-05 13:04 | 61.69470 | -12.24609 | 41137 ft | 516 kts | 122° |
| 2026-05-05 13:04 | 61.65683 | -12.11778 | 41138 ft | 516 kts | 122° |
| 2026-05-05 13:05 | 61.61884 | -11.98976 | 41137 ft | 516 kts | 122° |
| 2026-05-05 13:05 | 61.58073 | -11.86206 | 41137 ft | 516 kts | 122° |
| 2026-05-05 13:06 | 61.54250 | -11.73470 | 41137 ft | 516 kts | 122° |
| 2026-05-05 13:06 | 61.50417 | -11.60769 | 41137 ft | 516 kts | 123° |
| 2026-05-05 13:07 | 61.46571 | -11.48094 | 41138 ft | 516 kts | 123° |
| 2026-05-05 13:07 | 61.42727 | -11.35489 | 41137 ft | 515 kts | 123° |
| 2026-05-05 13:08 | 61.38864 | -11.22890 | 41138 ft | 515 kts | 123° |
| 2026-05-05 13:08 | 61.34989 | -11.10328 | 41137 ft | 515 kts | 123° |
| 2026-05-05 13:09 | 61.31100 | -10.97792 | 41138 ft | 515 kts | 123° |
| 2026-05-05 13:09 | 61.27203 | -10.85298 | 41138 ft | 515 kts | 123° |
| 2026-05-05 13:10 | 61.23318 | -10.72908 | 41147 ft | 515 kts | 123° |
| 2026-05-05 13:10 | 61.19400 | -10.60482 | 41147 ft | 515 kts | 123° |
| 2026-05-05 13:11 | 61.15441 | -10.47992 | 41147 ft | 515 kts | 123° |
| 2026-05-05 13:11 | 61.11524 | -10.35703 | 41147 ft | 515 kts | 124° |
| 2026-05-05 13:12 | 61.07572 | -10.23369 | 41146 ft | 515 kts | 124° |
| 2026-05-05 13:12 | 61.03611 | -10.11071 | 41146 ft | 515 kts | 124° |
| 2026-05-05 13:13 | 60.99805 | -9.98583 | 41167 ft | 515 kts | 116° |
| 2026-05-05 13:13 | 60.96666 | -9.85339 | 41165 ft | 515 kts | 115° |
| 2026-05-05 13:14 | 60.93641 | -9.71972 | 41165 ft | 515 kts | 115° |
| 2026-05-05 13:14 | 60.90618 | -9.58629 | 41165 ft | 515 kts | 115° |
| 2026-05-05 13:15 | 60.87568 | -9.45326 | 41158 ft | 515 kts | 115° |
| 2026-05-05 13:15 | 60.84495 | -9.32046 | 41156 ft | 515 kts | 116° |
| 2026-05-05 13:16 | 60.81410 | -9.18807 | 41156 ft | 515 kts | 116° |
| 2026-05-05 13:16 | 60.78310 | -9.05586 | 41156 ft | 515 kts | 116° |
| 2026-05-05 13:17 | 60.75198 | -8.92390 | 41156 ft | 515 kts | 116° |
| 2026-05-05 13:17 | 60.72035 | -8.79268 | 41152 ft | 515 kts | 120° |
| 2026-05-05 13:18 | 60.68099 | -8.67082 | 41156 ft | 514 kts | 126° |
| 2026-05-05 13:18 | 60.63953 | -8.55327 | 41156 ft | 514 kts | 127° |
| 2026-05-05 13:19 | 60.59736 | -8.43574 | 41156 ft | 514 kts | 127° |
| 2026-05-05 13:19 | 60.55515 | -8.31826 | 41156 ft | 514 kts | 127° |
| 2026-05-05 13:20 | 60.51303 | -8.20115 | 41155 ft | 514 kts | 127° |
| 2026-05-05 13:20 | 60.47081 | -8.08421 | 41156 ft | 513 kts | 127° |
| 2026-05-05 13:21 | 60.42850 | -7.96760 | 41156 ft | 514 kts | 127° |
| 2026-05-05 13:21 | 60.38612 | -7.85141 | 41156 ft | 514 kts | 127° |
| 2026-05-05 13:22 | 60.34356 | -7.73533 | 41156 ft | 514 kts | 127° |
| 2026-05-05 13:22 | 60.30093 | -7.61963 | 41156 ft | 514 kts | 127° |
| 2026-05-05 13:23 | 60.25852 | -7.50508 | 41155 ft | 513 kts | 127° |
| 2026-05-05 13:23 | 60.21572 | -7.39007 | 41156 ft | 513 kts | 128° |
| 2026-05-05 13:24 | 60.17281 | -7.27530 | 41155 ft | 513 kts | 128° |
| 2026-05-05 13:24 | 60.12981 | -7.16087 | 41147 ft | 514 kts | 128° |
| 2026-05-05 13:25 | 60.08669 | -7.04671 | 41146 ft | 514 kts | 128° |
| 2026-05-05 13:25 | 60.04342 | -6.93266 | 41146 ft | 514 kts | 128° |
| 2026-05-05 13:26 | 60.00024 | -6.81943 | 41146 ft | 514 kts | 128° |
| 2026-05-05 13:26 | 59.95678 | -6.70601 | 41146 ft | 513 kts | 128° |
| 2026-05-05 13:27 | 59.91331 | -6.59313 | 41146 ft | 513 kts | 128° |
| 2026-05-05 13:27 | 59.86981 | -6.48070 | 41147 ft | 513 kts | 128° |
| 2026-05-05 13:28 | 59.82620 | -6.36853 | 41147 ft | 513 kts | 129° |
| 2026-05-05 13:28 | 59.78249 | -6.25666 | 41146 ft | 513 kts | 129° |
| 2026-05-05 13:29 | 59.73865 | -6.14497 | 41137 ft | 513 kts | 129° |
| 2026-05-05 13:29 | 59.69471 | -6.03356 | 41137 ft | 513 kts | 129° |
| 2026-05-05 13:30 | 59.65813 | -5.94122 | 41137 ft | 513 kts | 129° |
| 2026-05-05 13:30 | 59.60682 | -5.81231 | 41137 ft | 513 kts | 129° |
| 2026-05-05 13:31 | 59.56265 | -5.70190 | 41137 ft | 513 kts | 129° |
| 2026-05-05 13:31 | 59.51838 | -5.59176 | 41138 ft | 512 kts | 129° |
| 2026-05-05 13:32 | 59.48153 | -5.50048 | 41138 ft | 512 kts | 129° |
| 2026-05-05 13:32 | 59.43711 | -5.39092 | 41138 ft | 512 kts | 129° |
| 2026-05-05 13:33 | 59.39263 | -5.28173 | 41137 ft | 512 kts | 129° |
| 2026-05-05 13:33 | 59.34806 | -5.17282 | 41138 ft | 512 kts | 130° |
| 2026-05-05 13:34 | 59.30346 | -5.06434 | 41137 ft | 511 kts | 130° |
| 2026-05-05 13:34 | 59.25877 | -4.95614 | 41138 ft | 511 kts | 130° |
| 2026-05-05 13:35 | 59.21394 | -4.84813 | 41138 ft | 511 kts | 130° |
| 2026-05-05 13:35 | 59.16909 | -4.74054 | 41137 ft | 511 kts | 130° |
| 2026-05-05 13:36 | 59.12414 | -4.63321 | 41137 ft | 511 kts | 130° |
| 2026-05-05 13:36 | 59.07908 | -4.52613 | 41137 ft | 511 kts | 130° |
| 2026-05-05 13:37 | 59.03393 | -4.41930 | 41138 ft | 511 kts | 130° |
| 2026-05-05 13:37 | 58.98876 | -4.31293 | 41138 ft | 511 kts | 130° |
| 2026-05-05 13:38 | 58.94347 | -4.20675 | 41137 ft | 511 kts | 130° |
| 2026-05-05 13:38 | 58.89816 | -4.10103 | 41137 ft | 510 kts | 130° |
| 2026-05-05 13:39 | 58.85276 | -3.99555 | 41134 ft | 510 kts | 130° |
| 2026-05-05 13:39 | 58.80759 | -3.89108 | 41128 ft | 510 kts | 131° |
| 2026-05-05 13:40 | 58.76209 | -3.78631 | 41128 ft | 510 kts | 131° |
| 2026-05-05 13:40 | 58.71653 | -3.68188 | 41129 ft | 509 kts | 131° |
| 2026-05-05 13:41 | 58.67089 | -3.57774 | 41128 ft | 509 kts | 131° |
| 2026-05-05 13:41 | 58.62519 | -3.47392 | 41128 ft | 509 kts | 131° |
| 2026-05-05 13:42 | 58.57946 | -3.37049 | 41129 ft | 509 kts | 131° |
| 2026-05-05 13:42 | 58.53360 | -3.26722 | 41128 ft | 509 kts | 131° |
| 2026-05-05 13:43 | 58.48772 | -3.16435 | 41128 ft | 509 kts | 131° |
| 2026-05-05 13:43 | 58.44157 | -3.06182 | 41127 ft | 508 kts | 133° |
| 2026-05-05 13:44 | 58.39379 | -2.96267 | 41129 ft | 508 kts | 134° |
| 2026-05-05 13:44 | 58.34537 | -2.86464 | 41128 ft | 508 kts | 134° |
| 2026-05-05 13:45 | 58.29714 | -2.76659 | 41129 ft | 508 kts | 134° |
| 2026-05-05 13:45 | 58.24904 | -2.66852 | 41132 ft | 507 kts | 134° |
| 2026-05-05 13:46 | 58.20087 | -2.57052 | 41128 ft | 507 kts | 134° |
| 2026-05-05 13:46 | 58.15305 | -2.47365 | 41127 ft | 507 kts | 134° |
| 2026-05-05 13:47 | 58.10481 | -2.37641 | 41126 ft | 507 kts | 134° |
| 2026-05-05 13:47 | 58.05652 | -2.27947 | 41128 ft | 506 kts | 134° |
| 2026-05-05 13:48 | 58.00820 | -2.18289 | 41122 ft | 506 kts | 134° |
| 2026-05-05 13:48 | 57.95982 | -2.08659 | 41125 ft | 505 kts | 135° |
| 2026-05-05 13:49 | 57.91141 | -1.99062 | 41112 ft | 505 kts | 135° |
| 2026-05-05 13:49 | 57.86294 | -1.89497 | 41106 ft | 505 kts | 135° |
| 2026-05-05 13:50 | 57.81439 | -1.79952 | 41110 ft | 505 kts | 135° |
| 2026-05-05 13:50 | 57.76578 | -1.70436 | 41113 ft | 505 kts | 135° |
| 2026-05-05 13:51 | 57.71711 | -1.60949 | 41113 ft | 505 kts | 135° |
| 2026-05-05 13:51 | 57.66839 | -1.51491 | 41106 ft | 505 kts | 135° |
| 2026-05-05 13:52 | 57.61997 | -1.42129 | 41103 ft | 505 kts | 135° |
| 2026-05-05 13:52 | 57.57115 | -1.32728 | 41111 ft | 504 kts | 135° |
| 2026-05-05 13:53 | 57.52230 | -1.23362 | 41097 ft | 504 kts | 135° |
| 2026-05-05 13:53 | 57.47310 | -1.14088 | 41098 ft | 503 kts | 136° |
| 2026-05-05 13:54 | 57.42380 | -1.04878 | 41103 ft | 503 kts | 136° |
| 2026-05-05 13:54 | 57.37447 | -0.95678 | 41102 ft | 503 kts | 136° |
| 2026-05-05 13:55 | 57.32511 | -0.86495 | 41106 ft | 502 kts | 136° |
| 2026-05-05 13:55 | 57.27575 | -0.77344 | 41101 ft | 502 kts | 136° |
| 2026-05-05 13:56 | 57.22636 | -0.68225 | 41088 ft | 502 kts | 136° |
| 2026-05-05 13:56 | 57.17694 | -0.59136 | 41088 ft | 502 kts | 136° |
| 2026-05-05 13:57 | 57.12741 | -0.50067 | 41084 ft | 502 kts | 136° |
| 2026-05-05 13:57 | 57.07790 | -0.41035 | 41085 ft | 502 kts | 136° |
| 2026-05-05 13:58 | 57.02828 | -0.32020 | 41081 ft | 501 kts | 136° |
| 2026-05-05 13:58 | 56.97872 | -0.23051 | 41082 ft | 501 kts | 136° |
| 2026-05-05 13:59 | 56.90451 | -0.09687 | 41072 ft | 501 kts | 136° |
| 2026-05-05 14:00 | 56.83808 | 0.02209 | 41074 ft | 501 kts | 137° |
| 2026-05-05 14:00 | 56.78016 | 0.12531 | 41072 ft | 501 kts | 137° |
| 2026-05-05 14:01 | 56.73024 | 0.21390 | 41076 ft | 500 kts | 137° |
| 2026-05-05 14:01 | 56.68033 | 0.30211 | 41065 ft | 500 kts | 137° |
| 2026-05-05 14:02 | 56.63035 | 0.39010 | 41064 ft | 500 kts | 137° |
| 2026-05-05 14:02 | 56.58038 | 0.47775 | 41063 ft | 500 kts | 137° |
| 2026-05-05 14:03 | 56.53033 | 0.56519 | 41064 ft | 499 kts | 137° |
| 2026-05-05 14:03 | 56.48022 | 0.65240 | 41064 ft | 499 kts | 137° |
| 2026-05-05 14:04 | 56.43011 | 0.73927 | 41065 ft | 499 kts | 137° |
| 2026-05-05 14:04 | 56.37674 | 0.81918 | 41045 ft | 498 kts | 144° |
| 2026-05-05 14:05 | 56.32127 | 0.89379 | 41037 ft | 498 kts | 145° |
| 2026-05-05 14:05 | 56.26578 | 0.96698 | 41039 ft | 497 kts | 145° |
| 2026-05-05 14:06 | 56.20996 | 1.04044 | 41037 ft | 497 kts | 145° |
| 2026-05-05 14:06 | 56.15415 | 1.11383 | 41028 ft | 497 kts | 145° |
| 2026-05-05 14:07 | 56.09829 | 1.18711 | 41013 ft | 497 kts | 145° |
| 2026-05-05 14:07 | 56.04243 | 1.26012 | 41032 ft | 497 kts | 145° |
| 2026-05-05 14:08 | 55.98673 | 1.33265 | 41029 ft | 497 kts | 145° |
| 2026-05-05 14:08 | 55.93093 | 1.40505 | 41012 ft | 495 kts | 145° |
| 2026-05-05 14:09 | 55.87515 | 1.47715 | 41012 ft | 495 kts | 145° |
| 2026-05-05 14:09 | 55.81936 | 1.54901 | 41030 ft | 495 kts | 145° |
| 2026-05-05 14:10 | 55.76348 | 1.62071 | 41009 ft | 495 kts | 146° |
| 2026-05-05 14:10 | 55.70761 | 1.69216 | 41008 ft | 495 kts | 146° |
| 2026-05-05 14:11 | 55.65165 | 1.76346 | 41008 ft | 495 kts | 146° |
| 2026-05-05 14:11 | 55.59567 | 1.83452 | 40999 ft | 495 kts | 146° |
| 2026-05-05 14:12 | 55.53969 | 1.90534 | 41000 ft | 495 kts | 146° |
| 2026-05-05 14:12 | 55.48369 | 1.97592 | 40993 ft | 495 kts | 146° |
| 2026-05-05 14:13 | 55.42763 | 2.04634 | 40979 ft | 495 kts | 146° |
| 2026-05-05 14:13 | 55.37152 | 2.11656 | 40988 ft | 495 kts | 146° |
| 2026-05-05 14:14 | 55.31540 | 2.18655 | 40989 ft | 495 kts | 146° |
| 2026-05-05 14:14 | 55.25926 | 2.25631 | 40990 ft | 494 kts | 146° |
| 2026-05-05 14:15 | 55.20313 | 2.32582 | 40978 ft | 494 kts | 146° |
| 2026-05-05 14:15 | 55.14696 | 2.39512 | 40980 ft | 494 kts | 146° |
| 2026-05-05 14:16 | 55.09114 | 2.46376 | 40980 ft | 494 kts | 146° |
| 2026-05-05 14:16 | 55.03495 | 2.53261 | 40979 ft | 493 kts | 146° |
| 2026-05-05 14:17 | 54.97875 | 2.60124 | 40979 ft | 493 kts | 146° |
| 2026-05-05 14:17 | 54.92254 | 2.66963 | 40981 ft | 493 kts | 146° |
| 2026-05-05 14:18 | 54.86627 | 2.73786 | 40982 ft | 493 kts | 146° |
| 2026-05-05 14:18 | 54.81003 | 2.80583 | 40975 ft | 493 kts | 146° |
| 2026-05-05 14:19 | 54.75373 | 2.87362 | 40972 ft | 493 kts | 146° |
| 2026-05-05 14:19 | 54.69740 | 2.94122 | 40971 ft | 493 kts | 146° |
| 2026-05-05 14:20 | 54.64104 | 3.00863 | 40973 ft | 492 kts | 147° |
| 2026-05-05 14:20 | 54.58469 | 3.07579 | 40973 ft | 492 kts | 147° |
| 2026-05-05 14:21 | 54.52833 | 3.14274 | 40972 ft | 492 kts | 147° |
| 2026-05-05 14:21 | 54.47193 | 3.20950 | 40973 ft | 492 kts | 147° |
| 2026-05-05 14:22 | 54.42500 | 3.26488 | 40971 ft | 492 kts | 147° |
| 2026-05-05 14:22 | 54.36857 | 3.33126 | 40970 ft | 492 kts | 147° |
| 2026-05-05 14:23 | 54.31208 | 3.39748 | 40970 ft | 492 kts | 147° |
| 2026-05-05 14:23 | 54.25563 | 3.46344 | 40973 ft | 492 kts | 147° |
| 2026-05-05 14:24 | 54.19911 | 3.52926 | 40979 ft | 491 kts | 147° |
| 2026-05-05 14:24 | 54.14257 | 3.59488 | 40981 ft | 491 kts | 147° |
| 2026-05-05 14:25 | 54.08604 | 3.66026 | 40980 ft | 491 kts | 147° |
| 2026-05-05 14:25 | 54.02950 | 3.72545 | 40977 ft | 491 kts | 147° |
| 2026-05-05 14:26 | 53.97293 | 3.79044 | 40981 ft | 491 kts | 147° |
| 2026-05-05 14:26 | 53.91636 | 3.85523 | 40979 ft | 491 kts | 147° |
| 2026-05-05 14:27 | 53.86005 | 3.91943 | 40988 ft | 491 kts | 147° |
| 2026-05-05 14:27 | 53.80019 | 3.97424 | 40989 ft | 489 kts | 155° |
| 2026-05-05 14:28 | 53.73877 | 4.02345 | 40990 ft | 489 kts | 156° |
| 2026-05-05 14:28 | 53.67701 | 4.07171 | 40989 ft | 489 kts | 156° |
| 2026-05-05 14:29 | 53.61534 | 4.11988 | 40989 ft | 489 kts | 156° |
| 2026-05-05 14:29 | 53.55372 | 4.16809 | 40989 ft | 488 kts | 156° |
| 2026-05-05 14:30 | 53.49209 | 4.21624 | 40989 ft | 488 kts | 156° |
| 2026-05-05 14:30 | 53.43047 | 4.26424 | 40990 ft | 488 kts | 156° |
| 2026-05-05 14:31 | 53.36885 | 4.31207 | 40979 ft | 488 kts | 156° |
| 2026-05-05 14:31 | 53.30721 | 4.35973 | 40979 ft | 488 kts | 156° |
| 2026-05-05 14:32 | 53.24558 | 4.40707 | 40979 ft | 487 kts | 156° |
| 2026-05-05 14:32 | 53.18396 | 4.45432 | 40970 ft | 487 kts | 156° |
| 2026-05-05 14:33 | 53.12239 | 4.50147 | 40972 ft | 487 kts | 157° |
| 2026-05-05 14:33 | 53.06077 | 4.54854 | 40973 ft | 487 kts | 156° |
| 2026-05-05 14:34 | 52.99923 | 4.59541 | 40961 ft | 487 kts | 157° |
| 2026-05-05 14:34 | 52.93766 | 4.64215 | 40962 ft | 486 kts | 157° |
| 2026-05-05 14:35 | 52.87650 | 4.68843 | 40962 ft | 486 kts | 157° |
| 2026-05-05 14:35 | 52.81497 | 4.73484 | 40963 ft | 486 kts | 157° |
| 2026-05-05 14:36 | 52.75340 | 4.78114 | 40962 ft | 486 kts | 157° |
| 2026-05-05 14:36 | 52.69188 | 4.82725 | 40953 ft | 486 kts | 157° |
| 2026-05-05 14:37 | 52.63030 | 4.87329 | 40943 ft | 486 kts | 157° |
| 2026-05-05 14:37 | 52.56882 | 4.91927 | 40729 ft | 486 kts | 157° |
| 2026-05-05 14:38 | 52.53802 | 4.94224 | 40493 ft | 485 kts | 157° |
| 2026-05-05 14:38 | 52.50723 | 4.96514 | 40257 ft | 485 kts | 157° |
| 2026-05-05 14:38 | 52.47659 | 4.98787 | 39999 ft | 484 kts | 157° |
| 2026-05-05 14:38 | 52.44563 | 5.01079 | 39746 ft | 483 kts | 157° |
| 2026-05-05 14:39 | 52.41533 | 5.03318 | 39502 ft | 482 kts | 157° |
| 2026-05-05 14:39 | 52.38548 | 5.05816 | 39250 ft | 482 kts | 150° |
| 2026-05-05 14:39 | 52.35789 | 5.08953 | 38997 ft | 483 kts | 142° |
| 2026-05-05 14:39 | 52.33361 | 5.12750 | 38754 ft | 485 kts | 133° |
| 2026-05-05 14:40 | 52.31343 | 5.17168 | 38514 ft | 486 kts | 123° |
| 2026-05-05 14:40 | 52.29725 | 5.22004 | 38035 ft | 483 kts | 118° |
| 2026-05-05 14:40 | 52.28262 | 5.26931 | 37405 ft | 482 kts | 116° |
| 2026-05-05 14:40 | 52.26872 | 5.31854 | 36731 ft | 482 kts | 116° |
| 2026-05-05 14:41 | 52.25468 | 5.36887 | 36026 ft | 481 kts | 116° |
| 2026-05-05 14:41 | 52.24087 | 5.41813 | 35310 ft | 481 kts | 117° |
| 2026-05-05 14:41 | 52.22677 | 5.46778 | 34525 ft | 483 kts | 117° |
| 2026-05-05 14:41 | 52.21254 | 5.51728 | 34389 ft | 480 kts | 117° |
| 2026-05-05 14:42 | 52.19843 | 5.56599 | 34595 ft | 472 kts | 118° |
| 2026-05-05 14:42 | 52.18431 | 5.61443 | 34901 ft | 473 kts | 118° |
| 2026-05-05 14:42 | 52.15656 | 5.70939 | 34247 ft | 451 kts | 118° |
| 2026-05-05 14:43 | 52.14316 | 5.75512 | 32956 ft | 451 kts | 118° |
| 2026-05-05 14:43 | 52.12954 | 5.80145 | 31436 ft | 455 kts | 118° |
| 2026-05-05 14:43 | 52.11601 | 5.84742 | 29887 ft | 458 kts | 118° |
| 2026-05-05 14:43 | 52.10210 | 5.89453 | 28413 ft | 469 kts | 117° |
| 2026-05-05 14:44 | 52.08789 | 5.94255 | 27559 ft | 470 kts | 117° |
| 2026-05-05 14:44 | 52.07376 | 5.99027 | 26923 ft | 466 kts | 117° |
| 2026-05-05 14:44 | 52.05979 | 6.03747 | 26308 ft | 461 kts | 117° |
| 2026-05-05 14:44 | 52.04598 | 6.08407 | 25709 ft | 456 kts | 117° |
| 2026-05-05 14:45 | 52.03230 | 6.13012 | 25115 ft | 450 kts | 117° |
| 2026-05-05 14:45 | 52.01876 | 6.17560 | 24534 ft | 445 kts | 117° |
| 2026-05-05 14:45 | 52.00540 | 6.22049 | 23955 ft | 438 kts | 117° |
| 2026-05-05 14:45 | 51.99215 | 6.26470 | 23386 ft | 433 kts | 117° |
| 2026-05-05 14:46 | 51.97897 | 6.30847 | 22803 ft | 429 kts | 117° |
| 2026-05-05 14:46 | 51.96594 | 6.35167 | 22212 ft | 424 kts | 117° |
| 2026-05-05 14:46 | 51.95303 | 6.39443 | 21661 ft | 420 kts | 117° |
| 2026-05-05 14:46 | 51.94024 | 6.43673 | 21083 ft | 416 kts | 117° |
| 2026-05-05 14:47 | 51.92758 | 6.47853 | 20496 ft | 411 kts | 117° |
| 2026-05-05 14:47 | 51.91485 | 6.51978 | 19919 ft | 407 kts | 119° |
| 2026-05-05 14:47 | 51.89912 | 6.55746 | 19352 ft | 402 kts | 131° |
| 2026-05-05 14:47 | 51.87872 | 6.58785 | 18784 ft | 397 kts | 146° |
| 2026-05-05 14:48 | 51.85445 | 6.60825 | 18214 ft | 392 kts | 160° |
| 2026-05-05 14:48 | 51.82882 | 6.62256 | 17626 ft | 388 kts | 162° |
| 2026-05-05 14:48 | 51.80320 | 6.63580 | 17040 ft | 385 kts | 163° |
| 2026-05-05 14:48 | 51.77731 | 6.64663 | 16566 ft | 384 kts | 167° |
| 2026-05-05 14:49 | 51.75078 | 6.65627 | 16206 ft | 396 kts | 167° |
| 2026-05-05 14:49 | 51.72385 | 6.66595 | 15777 ft | 397 kts | 167° |
| 2026-05-05 14:49 | 51.69691 | 6.67565 | 15346 ft | 395 kts | 167° |
| 2026-05-05 14:49 | 51.67019 | 6.68528 | 14928 ft | 393 kts | 167° |
| 2026-05-05 14:50 | 51.64362 | 6.69486 | 14517 ft | 390 kts | 167° |
| 2026-05-05 14:50 | 51.61718 | 6.70439 | 14106 ft | 388 kts | 167° |
| 2026-05-05 14:50 | 51.59098 | 6.71382 | 13702 ft | 385 kts | 167° |
| 2026-05-05 14:50 | 51.56489 | 6.72320 | 13289 ft | 383 kts | 167° |
| 2026-05-05 14:51 | 51.53892 | 6.73252 | 12899 ft | 381 kts | 167° |
| 2026-05-05 14:51 | 51.51311 | 6.74178 | 12492 ft | 379 kts | 167° |
| 2026-05-05 14:51 | 51.48748 | 6.75093 | 12087 ft | 377 kts | 167° |
| 2026-05-05 14:51 | 51.46183 | 6.75579 | 11826 ft | 364 kts | 181° |
| 2026-05-05 14:52 | 51.43716 | 6.75267 | 11578 ft | 348 kts | 186° |
| 2026-05-05 14:52 | 51.41358 | 6.74807 | 11300 ft | 332 kts | 187° |
| 2026-05-05 14:52 | 51.39156 | 6.74295 | 10877 ft | 309 kts | 193° |
| 2026-05-05 14:52 | 51.37331 | 6.72809 | 10522 ft | 286 kts | 223° |
| 2026-05-05 14:53 | 51.36068 | 6.70479 | 10128 ft | 270 kts | 232° |
| 2026-05-05 14:53 | 51.34988 | 6.68159 | 9775 ft | 256 kts | 233° |
| 2026-05-05 14:53 | 51.33929 | 6.65887 | 9490 ft | 255 kts | 233° |
| 2026-05-05 14:53 | 51.32864 | 6.63639 | 9204 ft | 253 kts | 232° |
| 2026-05-05 14:54 | 51.31791 | 6.61355 | 8942 ft | 253 kts | 233° |
| 2026-05-05 14:54 | 51.30753 | 6.59100 | 8699 ft | 251 kts | 233° |
| 2026-05-05 14:54 | 51.29732 | 6.56881 | 8446 ft | 250 kts | 233° |
| 2026-05-05 14:54 | 51.28691 | 6.54652 | 8175 ft | 250 kts | 232° |
| 2026-05-05 14:55 | 51.27642 | 6.52456 | 7894 ft | 248 kts | 232° |
| 2026-05-05 14:55 | 51.26593 | 6.50279 | 7628 ft | 247 kts | 232° |
| 2026-05-05 14:55 | 51.25527 | 6.48124 | 7362 ft | 246 kts | 231° |
| 2026-05-05 14:55 | 51.24459 | 6.45998 | 7108 ft | 246 kts | 231° |
| 2026-05-05 14:56 | 51.23392 | 6.43874 | 6846 ft | 244 kts | 231° |
| 2026-05-05 14:56 | 51.22353 | 6.41740 | 6595 ft | 243 kts | 232° |
| 2026-05-05 14:56 | 51.21326 | 6.39602 | 6358 ft | 242 kts | 232° |
| 2026-05-05 14:56 | 51.20305 | 6.37469 | 6093 ft | 241 kts | 232° |
| 2026-05-05 14:57 | 51.19263 | 6.35394 | 5833 ft | 239 kts | 225° |
| 2026-05-05 14:57 | 51.17863 | 6.34028 | 5602 ft | 238 kts | 195° |
| 2026-05-05 14:57 | 51.16230 | 6.34033 | 5365 ft | 238 kts | 164° |
| 2026-05-05 14:57 | 51.14773 | 6.35260 | 5117 ft | 237 kts | 143° |
| 2026-05-05 14:58 | 51.13459 | 6.36896 | 4925 ft | 240 kts | 140° |
| 2026-05-05 14:58 | 51.12487 | 6.38985 | 4661 ft | 235 kts | 107° |
| 2026-05-05 14:58 | 51.12468 | 6.41548 | 4606 ft | 236 kts | 73° |
| 2026-05-05 14:58 | 51.13068 | 6.43983 | 4345 ft | 236 kts | 60° |
| 2026-05-05 14:59 | 51.14012 | 6.46076 | 4144 ft | 228 kts | 50° |
| 2026-05-05 14:59 | 51.14994 | 6.47982 | 4003 ft | 216 kts | 51° |
| 2026-05-05 14:59 | 51.15882 | 6.49818 | 3930 ft | 203 kts | 52° |
| 2026-05-05 14:59 | 51.16718 | 6.51591 | 3775 ft | 194 kts | 53° |
| 2026-05-05 15:00 | 51.17493 | 6.53249 | 3686 ft | 180 kts | 53° |
| 2026-05-05 15:00 | 51.17984 | 6.54294 | 3528 ft | 176 kts | 52° |
| 2026-05-05 15:00 | 51.18951 | 6.56270 | 3168 ft | 163 kts | 51° |
| 2026-05-05 15:00 | 51.19619 | 6.57682 | 2900 ft | 155 kts | 53° |
| 2026-05-05 15:01 | 51.20235 | 6.59035 | 2664 ft | 147 kts | 54° |
| 2026-05-05 15:01 | 51.20838 | 6.60293 | 2448 ft | 138 kts | 52° |
| 2026-05-05 15:01 | 51.21428 | 6.61472 | 2281 ft | 135 kts | 53° |
| 2026-05-05 15:01 | 51.21996 | 6.62682 | 2132 ft | 138 kts | 55° |
| 2026-05-05 15:02 | 51.22564 | 6.63898 | 1948 ft | 139 kts | 54° |
| 2026-05-05 15:02 | 51.23153 | 6.65123 | 1766 ft | 140 kts | 54° |
| 2026-05-05 15:02 | 51.23737 | 6.66367 | 1575 ft | 141 kts | 53° |
| 2026-05-05 15:02 | 51.24330 | 6.67603 | 1408 ft | 139 kts | 49° |
| 2026-05-05 15:03 | 51.24933 | 6.68820 | 1201 ft | 136 kts | 53° |
| 2026-05-05 15:03 | 51.25499 | 6.70017 | 1015 ft | 134 kts | 51° |
| 2026-05-05 15:03 | 51.26050 | 6.71193 | 839 ft | 134 kts | 51° |
| 2026-05-05 15:03 | 51.26622 | 6.72378 | 680 ft | 135 kts | 51° |
| 2026-05-05 15:04 | 51.27193 | 6.73573 | 474 ft | 135 kts | 52° |
| 2026-05-05 15:04 | 51.27749 | 6.74765 | 281 ft | 133 kts | 49° |
| 2026-05-05 15:04 | 51.28318 | 6.75933 | 155 ft | 133 kts | 54° |
| 2026-05-05 15:04 | 51.28816 | 6.76991 | 137 ft | 97 kts | 54° |
| 2026-05-05 15:05 | 51.29259 | 6.77920 | 145 ft | 21 kts | 53° |
| 2026-05-05 15:05 | 51.29287 | 6.78116 | 147 ft | 15 kts | 109° |
| 2026-05-05 15:05 | 51.29239 | 6.78201 | 144 ft | 6 kts | 162° |
| 2026-05-05 15:06 | 51.29227 | 6.78205 | 143 ft | 2 kts | 167° |
| 2026-05-05 15:06 | 51.29194 | 6.78206 | 143 ft | 8 kts | 190° |
| 2026-05-05 15:06 | 51.29138 | 6.78133 | 140 ft | 14 kts | 231° |
| 2026-05-05 15:06 | 51.29079 | 6.78009 | 137 ft | 17 kts | 231° |
| 2026-05-05 15:07 | 51.28999 | 6.77845 | 136 ft | 21 kts | 233° |
| 2026-05-05 15:07 | 51.28907 | 6.77651 | 136 ft | 23 kts | 233° |
| 2026-05-05 15:07 | 51.28807 | 6.77442 | 136 ft | 24 kts | 232° |
| 2026-05-05 15:07 | 51.28704 | 6.77227 | 136 ft | 22 kts | 232° |
| 2026-05-05 15:08 | 51.28607 | 6.77023 | 136 ft | 22 kts | 233° |
| 2026-05-05 15:08 | 51.28513 | 6.76827 | 128 ft | 24 kts | 232° |
| 2026-05-05 15:08 | 51.28412 | 6.76615 | 122 ft | 18 kts | 233° |
| 2026-05-05 15:08 | 51.28327 | 6.76436 | 124 ft | 22 kts | 233° |
| 2026-05-05 15:09 | 51.28236 | 6.76245 | 134 ft | 21 kts | 232° |
| 2026-05-05 15:09 | 51.28156 | 6.76077 | 135 ft | 13 kts | 232° |
| 2026-05-05 15:09 | 51.28099 | 6.76039 | 136 ft | 9 kts | 173° |
| 2026-05-05 15:09 | 51.28039 | 6.76059 | 136 ft | 8 kts | 148° |
| 2026-05-05 15:10 | 51.28013 | 6.76122 | 136 ft | 1 kts | 120° |
| 2026-05-05 15:10 | 51.28008 | 6.76136 | 136 ft | 2 kts | 119° |
| 2026-05-05 15:10 | 51.28000 | 6.76157 | 136 ft | 1 kts | 119° |
| 2026-05-05 15:10 | 51.28000 | 6.76158 | 136 ft | 0 kts | 119° |